Repülésmeteorológia

METAR


Utolsó módosítás időpontja: 2021-07-27 23:50:00
181
SAHU41 HASM 280000
METAR LHSM 272345Z AUTO 00000KT 9000 NCD 20/19 Q1014

TAF


Utolsó módosítás időpontja: 2021-07-27 23:05:00
179
FCHU99 LHSM 272300
TAF LHSM 272300Z NIL